createdAt,value
2023-01-09T05:04:07.549Z,2.40
2023-01-09T05:08:10.093Z,2.22
2023-01-09T05:12:12.561Z,2.28
2023-01-09T05:16:15.133Z,2.40
2023-01-09T05:20:18.985Z,2.40
2023-01-09T05:24:21.639Z,2.45
2023-01-09T05:28:24.131Z,1.97
2023-01-09T05:32:26.609Z,2.10
2023-01-09T05:36:30.544Z,1.90
2023-01-09T05:40:40.142Z,1.95
2023-01-09T05:44:43.106Z,2.05
2023-01-09T05:48:45.653Z,1.80
2023-01-09T05:52:49.476Z,1.60
2023-01-09T05:56:51.966Z,1.20
2023-01-09T06:00:54.841Z,1.05
2023-01-09T06:04:57.393Z,0.60
2023-01-09T06:09:01.235Z,0.93
2023-01-09T06:13:03.797Z,0.60
2023-01-09T06:17:07.383Z,1.00
2023-01-09T06:25:14.201Z,0.90
2023-01-09T06:29:16.701Z,0.68
2023-01-09T06:33:19.770Z,0.73
2023-01-09T06:37:22.248Z,0.60
2023-01-09T06:41:26.068Z,0.47
2023-01-09T06:45:28.521Z,0.60
2023-01-09T06:49:31.030Z,0.40
2023-01-09T06:53:34.997Z,0.70
2023-01-09T06:57:38.886Z,0.70
2023-01-09T07:01:41.850Z,0.55
2023-01-09T07:05:44.537Z,0.68
2023-01-09T07:09:47.138Z,0.63
2023-01-09T07:13:50.936Z,0.50
2023-01-09T07:17:53.947Z,0.68
2023-01-09T07:21:56.433Z,0.68
2023-01-09T07:26:00.456Z,0.80
2023-01-09T07:30:05.696Z,0.70
2023-01-09T07:34:08.213Z,0.80
2023-01-09T07:38:10.719Z,0.77
2023-01-09T07:42:13.451Z,0.85
2023-01-09T07:46:17.322Z,0.90
2023-01-09T07:50:19.900Z,0.82
2023-01-09T07:54:22.594Z,0.63
2023-01-09T07:58:25.081Z,0.70
2023-01-09T08:02:28.937Z,0.70
2023-01-09T08:06:32.374Z,0.80
2023-01-09T08:10:34.874Z,0.80
2023-01-09T08:14:37.363Z,0.80
2023-01-09T08:18:41.155Z,0.65
2023-01-09T08:22:49.360Z,0.68
2023-01-09T08:26:51.833Z,0.75
2023-01-09T08:30:54.355Z,0.70
2023-01-09T08:34:58.229Z,0.65
2023-01-09T08:39:00.741Z,0.65
2023-01-09T08:43:20.790Z,0.90
2023-01-09T08:47:24.907Z,1.00
2023-01-09T08:51:28.875Z,0.80
2023-01-09T08:55:31.360Z,0.82
2023-01-09T08:59:33.940Z,0.75
2023-01-09T09:03:36.436Z,0.90
2023-01-09T09:07:41.462Z,0.60
2023-01-09T09:11:44.022Z,0.75
2023-01-09T09:15:46.526Z,0.70
2023-01-09T09:19:49.044Z,0.57
2023-01-09T09:23:53.019Z,0.70
2023-01-09T09:27:56.315Z,0.80
2023-01-09T09:32:00.808Z,0.50
2023-01-09T09:36:03.529Z,0.60
2023-01-09T09:40:18.672Z,0.60
2023-01-09T09:44:52.726Z,0.57
2023-01-09T09:49:01.627Z,0.50
2023-01-09T09:53:10.713Z,0.70
2023-01-09T09:57:19.021Z,0.68
2023-01-09T10:01:25.412Z,0.50
2023-01-09T10:05:31.017Z,0.50
2023-01-09T10:09:43.553Z,0.40
2023-01-09T10:14:06.006Z,0.65
2023-01-09T10:18:21.915Z,0.40
2023-01-09T10:26:40.473Z,0.47
2023-01-09T10:30:49.446Z,0.68
2023-01-09T10:35:03.962Z,0.50
2023-01-09T10:39:11.932Z,0.50
2023-01-09T10:43:30.978Z,0.60
2023-01-09T10:47:38.138Z,0.63
2023-01-09T10:51:46.950Z,0.85
2023-01-09T10:55:54.357Z,0.40
2023-01-09T10:59:57.518Z,0.60
2023-01-09T11:04:02.334Z,0.50
2023-01-09T11:08:13.620Z,0.40
2023-01-09T11:12:25.264Z,0.50
2023-01-09T11:16:27.824Z,0.70
2023-01-09T11:20:31.759Z,0.52
2023-01-09T11:24:34.474Z,0.40
2023-01-09T11:28:36.971Z,0.73
2023-01-09T11:32:39.521Z,0.63
2023-01-09T11:36:43.430Z,0.70
2023-01-09T11:40:50.424Z,0.95
2023-01-09T11:44:59.030Z,0.50
2023-01-09T11:49:03.912Z,0.50
2023-01-09T11:53:16.377Z,0.30
2023-01-09T11:57:19.453Z,0.70
2023-01-09T12:02:02.258Z,0.40
2023-01-09T12:06:16.982Z,0.80
2023-01-09T12:10:39.273Z,0.60
2023-01-09T12:14:54.825Z,0.52
2023-01-09T12:19:12.873Z,0.50
2023-01-09T12:23:29.564Z,0.60
2023-01-09T12:27:51.485Z,0.32
2023-01-09T12:32:07.232Z,0.30
2023-01-09T12:36:23.752Z,0.80
2023-01-09T12:40:43.797Z,0.50
2023-01-09T12:45:15.375Z,0.50
2023-01-09T12:49:30.735Z,0.70
2023-01-09T12:53:37.533Z,0.50
2023-01-09T12:57:43.081Z,0.65
2023-01-09T13:01:49.467Z,0.60
2023-01-09T13:05:54.105Z,0.50
2023-01-09T13:10:03.463Z,0.85
2023-01-09T13:14:12.056Z,0.40
2023-01-09T13:18:23.497Z,0.50
2023-01-09T13:22:28.371Z,0.60
2023-01-09T13:26:35.004Z,0.73
2023-01-09T13:30:51.423Z,0.80
2023-01-09T13:34:57.318Z,0.50
2023-01-09T13:39:01.873Z,0.57
2023-01-09T13:43:08.354Z,0.93
2023-01-09T13:47:21.991Z,0.70
2023-01-09T13:52:00.318Z,0.80
2023-01-09T13:56:07.272Z,0.70
2023-01-09T14:00:47.533Z,0.40
2023-01-09T14:04:50.034Z,0.75
2023-01-09T14:09:13.739Z,0.85
2023-01-09T14:13:18.717Z,0.70
2023-01-09T14:17:29.372Z,0.57
2023-01-09T14:21:47.020Z,0.73
2023-01-09T14:25:51.931Z,0.60
2023-01-09T14:30:18.204Z,0.85
2023-01-09T14:34:31.827Z,0.57
2023-01-09T14:38:37.928Z,0.70
2023-01-09T14:42:43.209Z,0.60
2023-01-09T14:46:46.693Z,0.60
2023-01-09T14:54:56.642Z,0.60
2023-01-09T14:59:11.993Z,0.60
2023-01-09T15:03:14.565Z,0.75
2023-01-09T15:07:21.172Z,0.77
2023-01-09T15:11:23.972Z,0.98
2023-01-09T15:15:28.763Z,0.77
2023-01-09T15:19:32.791Z,0.60
2023-01-09T15:23:35.284Z,0.47
2023-01-09T15:27:47.857Z,0.70
2023-01-09T15:31:55.747Z,0.70
2023-01-09T15:36:02.479Z,0.95
2023-01-09T15:40:08.981Z,1.00
2023-01-09T15:44:16.214Z,0.90
2023-01-09T15:48:29.357Z,1.00
2023-01-09T15:52:32.268Z,0.88
2023-01-09T15:56:35.378Z,0.77
2023-01-09T16:00:41.817Z,0.77
2023-01-09T16:04:46.383Z,1.10
2023-01-09T16:08:53.532Z,0.80
2023-01-09T16:12:56.357Z,0.82
2023-01-09T16:17:02.211Z,0.60
2023-01-09T16:21:31.938Z,0.80
2023-01-09T16:25:36.877Z,0.80
2023-01-09T16:29:45.987Z,0.90
2023-01-09T16:33:52.099Z,0.90
2023-01-09T16:37:56.002Z,0.68
2023-01-09T16:42:16.477Z,1.00
2023-01-09T16:46:22.085Z,1.40
2023-01-09T16:50:25.624Z,1.10
2023-01-09T16:58:35.381Z,0.90
2023-01-09T17:02:37.957Z,0.80
2023-01-09T17:06:41.079Z,1.00
2023-01-09T17:10:44.940Z,1.45
2023-01-09T17:14:47.802Z,0.68
2023-01-09T17:18:50.298Z,1.95
2023-01-09T17:22:52.759Z,1.20
2023-01-09T17:27:14.414Z,1.20
2023-01-09T17:31:17.051Z,1.40
2023-01-09T17:35:19.654Z,1.40
2023-01-09T17:39:22.979Z,1.47
2023-01-09T17:43:26.850Z,1.40
2023-01-09T17:47:29.349Z,1.35
2023-01-09T17:51:31.975Z,1.55
2023-01-09T17:55:34.878Z,1.53
2023-01-09T17:59:38.691Z,2.15
2023-01-09T18:03:41.484Z,1.42
2023-01-09T18:07:43.968Z,1.43
2023-01-09T18:11:48.182Z,1.48
2023-01-09T18:15:52.075Z,1.50
2023-01-09T18:19:54.590Z,1.30
2023-01-09T18:23:57.859Z,1.40
2023-01-09T18:28:00.917Z,1.67
2023-01-09T18:32:05.162Z,2.10
2023-01-09T18:36:09.036Z,1.65
2023-01-09T18:40:12.512Z,1.80
2023-01-09T18:48:18.701Z,2.35
2023-01-09T18:52:21.229Z,2.05
2023-01-09T18:56:24.734Z,2.00
2023-01-09T19:00:27.289Z,1.77
2023-01-09T19:04:31.327Z,1.83
2023-01-09T19:08:35.873Z,2.17
2023-01-09T19:12:38.536Z,1.85
2023-01-09T19:16:41.160Z,2.23
2023-01-09T19:20:45.101Z,1.97
2023-01-09T19:24:47.705Z,2.13
2023-01-09T19:28:51.748Z,2.07
2023-01-09T19:32:54.306Z,2.75
2023-01-09T19:36:58.181Z,2.50
2023-01-09T19:41:09.425Z,2.97
2023-01-09T19:45:12.363Z,3.00
2023-01-09T19:49:14.893Z,2.60
2023-01-09T19:53:18.733Z,2.37
2023-01-09T19:57:21.276Z,2.67
2023-01-09T20:01:26.208Z,2.70
2023-01-09T20:05:28.800Z,2.60
2023-01-09T20:09:32.816Z,2.70
2023-01-09T20:13:35.763Z,2.67
2023-01-09T20:17:38.273Z,2.60
2023-01-09T20:21:41.006Z,2.47
2023-01-09T20:25:46.663Z,2.40
2023-01-09T20:29:49.215Z,2.10
2023-01-09T20:33:52.109Z,2.23
2023-01-09T20:37:54.624Z,2.42
2023-01-09T20:41:58.504Z,2.40
2023-01-09T20:46:03.722Z,2.17
2023-01-09T20:50:07.330Z,2.60
2023-01-09T20:58:13.660Z,2.60
2023-01-09T21:02:16.240Z,2.70
2023-01-09T21:06:20.530Z,2.63
2023-01-09T21:10:23.347Z,2.40
2023-01-09T21:14:27.270Z,2.67
2023-01-09T21:18:30.101Z,3.00
2023-01-09T21:22:33.796Z,3.00
2023-01-09T21:26:36.349Z,3.05
2023-01-09T21:30:40.174Z,2.90
2023-01-09T21:34:42.722Z,3.10
2023-01-09T21:38:47.359Z,3.13
2023-01-09T21:43:07.636Z,3.33
2023-01-09T21:47:11.567Z,3.15
2023-01-09T21:51:14.075Z,3.25
2023-01-09T21:55:16.708Z,2.85
2023-01-09T21:59:19.438Z,3.03
